Time;durP1;ratioP1;P1;durP2;ratioP2;P2;SDS_P1;SDS_P2;PMS_P1;PMS_P2;Temp;Humidity;BMP_temperature;BMP_pressure;BME280_temperature;BME280_humidity;BME280_pressure;Samples;Min_cycle;Max_cycle;Signal;HPM_P1;HPM_P2
2023/10/02 00:02:05;;;;;;;5.43;3.43;;;;;;;13.85;59.21;99547.31;5118277;27;41756;-85
2023/10/02 00:04:35;;;;;;;6.33;3.50;;;;;;;13.72;59.47;99537.59;5118086;27;41747;-84
2023/10/02 00:07:07;;;;;;;3.87;2.50;;;;;;;13.80;59.34;99549.44;5153616;27;42039;-83
2023/10/02 00:09:35;;;;;;;5.27;2.93;;;;;;;13.65;59.55;99539.75;5132536;27;41354;-84
2023/10/02 00:12:11;;;;;;;5.30;2.90;;;;;;;13.72;59.85;99551.75;5135471;27;41948;-85
2023/10/02 00:14:38;;;;;;;6.37;3.50;;;;;;;13.69;59.78;99546.63;5136787;27;42322;-85
2023/10/02 00:17:07;;;;;;;4.93;3.13;;;;;;;13.58;59.67;99533.13;5153805;27;42212;-85
2023/10/02 00:19:37;;;;;;;4.57;2.80;;;;;;;13.60;59.64;99537.38;5119659;27;39055;-83
2023/10/02 00:22:08;;;;;;;5.93;3.10;;;;;;;13.50;59.97;99524.78;5119961;27;40733;-84
2023/10/02 00:24:37;;;;;;;5.40;3.20;;;;;;;13.59;59.93;99545.50;5118951;27;42654;-82
2023/10/02 00:27:06;;;;;;;5.30;2.97;;;;;;;13.54;60.03;99547.59;5118892;27;42163;-82
2023/10/02 00:29:35;;;;;;;5.50;2.80;;;;;;;13.53;59.88;99553.84;5136623;27;38833;-81
2023/10/02 00:32:11;;;;;;;6.47;3.40;;;;;;;13.49;59.91;99550.53;5136334;27;41691;-83
2023/10/02 00:34:39;;;;;;;4.80;2.77;;;;;;;13.46;60.07;99550.75;5151443;27;43604;-83
2023/10/02 00:37:12;;;;;;;5.60;2.80;;;;;;;13.33;60.35;99532.97;5136150;27;42627;-82
2023/10/02 00:39:41;;;;;;;4.80;3.07;;;;;;;13.41;60.50;99551.97;5150357;27;39973;-83
2023/10/02 00:42:24;;;;;;;3.57;2.73;;;;;;;13.39;60.38;99559.19;5134512;27;42042;-83
2023/10/02 00:44:54;;;;;;;3.57;2.70;;;;;;;13.38;60.22;99554.81;5150241;27;42794;-82
2023/10/02 00:47:41;;;;;;;5.00;2.93;;;;;;;13.35;60.39;99541.72;5134816;27;42783;-84
2023/10/02 00:50:16;;;;;;;4.67;2.57;;;;;;;13.20;60.51;99517.78;5134941;27;40084;-84
2023/10/02 00:52:51;;;;;;;4.80;2.20;;;;;;;13.32;60.91;99540.09;5117849;27;40783;-83
2023/10/02 00:55:21;;;;;;;5.27;2.73;;;;;;;13.29;60.77;99542.94;5149243;27;42942;-83
2023/10/02 00:57:51;;;;;;;4.30;2.50;;;;;;;13.28;60.97;99547.41;5152795;27;43230;-82
2023/10/02 01:00:21;;;;;;;5.40;3.03;;;;;;;13.29;61.08;99548.28;5132077;27;40949;-84
2023/10/02 01:02:51;;;;;;;5.90;2.93;;;;;;;13.27;60.98;99545.69;5134637;27;41719;-83
2023/10/02 01:05:22;;;;;;;4.10;3.17;;;;;;;13.24;61.21;99545.03;5117660;27;42596;-82
2023/10/02 01:07:55;;;;;;;5.67;3.00;;;;;;;13.14;61.26;99527.91;5134107;27;41586;-82
2023/10/02 01:10:29;;;;;;;5.33;2.77;;;;;;;13.02;61.67;99518.03;5131808;27;40153;-82
2023/10/02 01:13:01;;;;;;;3.27;2.40;;;;;;;13.20;61.66;99549.72;5118295;27;41114;-84
2023/10/02 01:15:29;;;;;;;4.23;2.53;;;;;;;13.08;61.81;99539.81;5150005;27;42740;-83
2023/10/02 01:18:21;;;;;;;6.00;2.80;;;;;;;13.15;61.74;99553.59;5135759;27;41300;-82
2023/10/02 01:20:48;;;;;;;5.47;2.50;;;;;;;13.12;61.67;99553.75;5135900;27;40262;-84
2023/10/02 01:23:21;;;;;;;6.33;3.20;;;;;;;13.06;62.22;99541.69;5135398;27;41125;-83
2023/10/02 01:25:51;;;;;;;4.43;2.57;;;;;;;13.10;62.11;99553.00;5135234;27;44120;-83
2023/10/02 01:28:25;;;;;;;5.60;2.93;;;;;;;13.05;62.34;99555.94;5134924;27;42913;-82
2023/10/02 01:30:55;;;;;;;4.60;2.63;;;;;;;12.93;62.19;99543.41;5116482;27;39813;-83
2023/10/02 01:33:26;;;;;;;3.23;2.20;;;;;;;12.99;62.33;99552.78;5131608;27;42500;-83
2023/10/02 01:35:56;;;;;;;4.97;2.77;;;;;;;12.96;62.35;99551.19;5134118;27;42239;-82
2023/10/02 01:38:29;;;;;;;3.73;2.57;;;;;;;12.97;62.40;99560.88;5134076;27;42421;-82
2023/10/02 01:41:06;;;;;;;4.83;2.63;;;;;;;12.93;62.25;99556.69;5137683;27;38681;-84
2023/10/02 01:43:39;;;;;;;4.37;2.80;;;;;;;12.89;62.39;99560.47;5120499;27;41916;-83
2023/10/02 01:46:07;;;;;;;6.40;3.10;;;;;;;12.83;62.12;99568.84;5137845;27;42872;-84
2023/10/02 01:48:40;;;;;;;5.77;3.00;;;;;;;12.82;62.21;99573.28;5137789;27;42549;-82
2023/10/02 01:51:28;;;;;;;4.30;2.83;;;;;;;12.78;62.46;99568.25;5137831;27;38942;-83
2023/10/02 01:53:57;;;;;;;4.43;2.63;;;;;;;12.74;62.07;99569.34;5120134;27;40763;-86
2023/10/02 01:56:29;;;;;;;6.40;3.10;;;;;;;12.66;62.27;99559.19;5120057;27;41833;-83
2023/10/02 01:59:08;;;;;;;3.93;2.30;;;;;;;12.66;62.07;99559.19;5134413;27;42204;-84
2023/10/02 02:01:46;;;;;;;4.73;2.70;;;;;;;12.63;62.32;99563.84;5135945;27;40901;-82
2023/10/02 08:17:27;;;;;;;11.10;6.07;;;;;;;22.35;49.10;99629.44;5102109;28;20559;-84
2023/10/02 08:19:56;;;;;;;8.53;6.43;;;;;;;22.82;48.10;99615.75;5051495;28;39117;-82
2023/10/02 08:22:24;;;;;;;9.13;5.43;;;;;;;23.94;46.04;99641.91;5068052;28;41940;-85
2023/10/02 08:24:52;;;;;;;10.70;5.70;;;;;;;25.27;44.05;99669.00;5067861;28;43245;-85
2023/10/02 08:27:19;;;;;;;8.73;5.63;;;;;;;26.47;40.93;99678.91;5051859;28;41390;-84
2023/10/02 08:29:47;;;;;;;12.43;6.83;;;;;;;27.19;39.41;99674.06;5051281;28;40348;-83
2023/10/02 08:32:28;;;;;;;8.03;5.17;;;;;;;27.74;38.67;99690.06;5068223;28;41586;-83
2023/10/02 08:34:58;;;;;;;7.70;5.90;;;;;;;28.32;37.79;99693.00;5067637;28;42609;-84
2023/10/02 08:37:25;;;;;;;10.90;5.73;;;;;;;28.57;37.12;99697.94;5051317;28;43250;-83
2023/10/02 08:39:53;;;;;;;11.33;6.87;;;;;;;28.76;36.37;99698.41;5067884;28;40951;-84
2023/10/02 08:42:24;;;;;;;8.57;5.90;;;;;;;29.42;35.41;99697.25;5067445;28;41827;-84
2023/10/02 08:44:58;;;;;;;10.33;6.33;;;;;;;30.31;34.24;99702.91;5065006;28;42762;-84
2023/10/02 08:47:25;;;;;;;11.63;6.40;;;;;;;30.83;32.65;99685.91;5049846;28;42474;-84
2023/10/02 08:50:03;;;;;;;9.67;5.70;;;;;;;31.23;32.30;99696.97;5088337;28;40565;-85
2023/10/02 08:52:41;;;;;;;8.97;6.43;;;;;;;31.68;31.60;99679.75;5067275;28;41427;-83
2023/10/02 08:55:35;;;;;;;8.63;6.23;;;;;;;31.96;30.38;99706.06;5066361;28;43057;-83
2023/10/02 08:58:16;;;;;;;8.38;5.50;;;;;;;32.16;31.31;99693.16;5063990;28;42629;-84
2023/10/02 09:01:08;;;;;;;10.27;6.15;;;;;;;32.09;30.99;99659.44;5067015;28;39302;-83
2023/10/02 09:03:42;;;;;;;10.38;7.03;;;;;;;32.70;29.34;99705.66;5050441;28;40370;-83
2023/10/02 09:06:31;;;;;;;7.50;5.72;;;;;;;33.40;29.09;99706.53;5066862;28;42572;-84
2023/10/02 09:11:45;;;;;;;9.80;6.90;;;;;;;34.02;28.52;99700.09;5050200;28;38917;-83
2023/10/02 09:14:21;;;;;;;10.95;6.40;;;;;;;33.31;29.35;99697.72;5067593;28;40260;-84
2023/10/02 09:17:07;;;;;;;11.45;6.00;;;;;;;32.41;29.95;99685.09;5050309;28;42884;-83
2023/10/02 09:19:37;;;;;;;10.20;6.47;;;;;;;31.19;31.03;99619.91;5065369;28;42955;-83
2023/10/02 09:22:10;;;;;;;10.07;6.23;;;;;;;30.95;32.05;99667.00;5066988;28;38662;-84
2023/10/02 09:24:41;;;;;;;12.93;6.43;;;;;;;30.63;32.81;99661.25;5067055;28;40649;-83
2023/10/02 09:27:24;;;;;;;10.77;6.50;;;;;;;30.31;33.13;99660.03;5061878;28;43354;-83
2023/10/02 09:30:15;;;;;;;7.07;4.87;;;;;;;30.00;33.18;99663.25;5053543;28;41145;-86
2023/10/02 09:32:49;;;;;;;10.00;5.80;;;;;;;29.82;33.47;99653.84;5053010;28;40315;-83
2023/10/02 09:35:29;;;;;;;8.73;5.07;;;;;;;29.97;33.56;99651.88;5050952;28;42942;-85
2023/10/02 09:38:02;;;;;;;8.13;5.43;;;;;;;29.68;33.45;99655.66;5053490;28;42967;-84
2023/10/02 09:43:19;;;;;;;9.47;4.97;;;;;;;29.07;34.73;99616.28;5034410;28;39024;-84
2023/10/02 09:45:48;;;;;;;9.77;6.13;;;;;;;29.41;34.71;99632.78;5035429;28;42230;-84
2023/10/02 09:51:37;;;;;;;8.43;5.67;;;;;;;29.40;34.74;99622.06;5051499;28;43209;-85
2023/10/02 09:54:17;;;;;;;8.00;4.87;;;;;;;29.21;34.93;99613.47;5035717;28;39149;-84
2023/10/02 09:57:04;;;;;;;7.77;4.90;;;;;;;29.22;34.63;99611.59;5051956;28;42007;-83
2023/10/02 09:59:45;;;;;;;7.50;5.73;;;;;;;29.52;34.21;99621.31;5051839;28;42134;-84
2023/10/02 10:05:39;;;;;;;9.40;5.37;;;;;;;30.11;33.90;99615.38;5035351;28;39559;-85
2023/10/02 10:08:27;;;;;;;8.60;5.77;;;;;;;31.79;31.63;99626.19;5051914;28;40877;-84
2023/10/02 10:10:57;;;;;;;10.53;6.40;;;;;;;33.73;29.05;99618.34;5051596;28;42416;-84
2023/10/02 10:13:36;;;;;;;9.77;5.65;;;;;;;35.43;26.93;99641.09;5052506;28;41278;-85
2023/10/02 10:16:39;;;;;;;11.63;6.30;;;;;;;35.67;26.31;99653.81;5033139;28;39933;-84
2023/10/02 10:19:27;;;;;;;8.38;5.35;;;;;;;35.38;26.68;99639.03;5036847;28;40872;-84
2023/10/02 10:21:57;;;;;;;7.70;5.30;;;;;;;35.02;26.78;99644.69;5053362;28;42425;-84
2023/10/02 10:24:56;;;;;;;6.95;5.20;;;;;;;34.44;28.07;99635.13;5036671;28;43791;-84
2023/10/02 10:27:54;;;;;;;9.63;5.30;;;;;;;34.55;27.91;99634.31;5053074;28;38791;-84
2023/10/02 10:30:51;;;;;;;7.63;5.38;;;;;;;34.96;27.41;99635.47;5052617;28;42545;-85
2023/10/02 10:33:35;;;;;;;7.63;5.85;;;;;;;35.86;26.34;99640.75;5052714;28;42803;-84
2023/10/02 10:36:13;;;;;;;8.25;5.45;;;;;;;37.15;25.10;99632.91;5052963;28;43262;-85
2023/10/02 10:38:42;;;;;;;7.18;5.15;;;;;;;38.63;23.45;99645.94;5035008;28;39010;-86
2023/10/02 10:41:14;;;;;;;8.00;5.13;;;;;;;40.09;22.41;99650.28;5085245;28;42991;-85
2023/10/02 10:43:55;;;;;;;9.77;5.88;;;;;;;41.26;21.06;99651.56;5047763;28;43219;-85
2023/10/02 10:46:27;;;;;;;6.90;5.13;;;;;;;42.00;20.42;99634.28;5034119;28;41129;-85
2023/10/02 10:48:59;;;;;;;8.35;5.82;;;;;;;42.87;19.75;99646.72;5034532;28;40209;-85
2023/10/02 10:51:33;;;;;;;9.38;6.20;;;;;;;43.54;18.92;99633.91;5051619;28;40900;-85
2023/10/02 10:54:25;;;;;;;8.52;5.75;;;;;;;43.98;18.66;99646.94;5067675;28;42106;-86
2023/10/02 10:57:18;;;;;;;7.88;5.80;;;;;;;44.70;18.24;99636.53;5051895;28;42438;-85
2023/10/02 10:59:47;;;;;;;7.95;5.78;;;;;;;44.84;18.19;99636.63;5048914;28;40373;-85
2023/10/02 11:02:17;;;;;;;7.47;5.13;;;;;;;44.68;18.27;99619.22;5034170;28;41669;-85
2023/10/02 11:04:47;;;;;;;6.63;4.93;;;;;;;45.03;17.12;99635.47;5033882;28;41746;-85
2023/10/02 11:07:23;;;;;;;8.68;5.40;;;;;;;45.86;17.08;99635.78;5034343;28;42546;-86
2023/10/02 11:10:14;;;;;;;6.75;5.07;;;;;;;46.62;16.05;99639.81;5050569;28;40265;-85
2023/10/02 11:12:54;;;;;;;7.32;5.50;;;;;;;47.74;15.44;99627.56;5051035;28;43552;-87
2023/10/02 11:15:45;;;;;;;6.55;5.32;;;;;;;48.61;14.98;99620.28;5048737;28;42797;-85
2023/10/02 11:18:28;;;;;;;7.30;4.75;;;;;;;49.43;14.59;99612.84;5051652;28;43466;-86
2023/10/02 11:20:57;;;;;;;8.18;5.15;;;;;;;49.78;14.22;99614.41;5034726;28;38820;-86
2023/10/02 11:23:37;;;;;;;7.13;5.43;;;;;;;49.55;14.75;99611.00;5034947;28;40790;-88
2023/10/02 11:26:11;;;;;;;8.13;5.85;;;;;;;48.65;15.01;99598.78;5051332;28;42773;-85
2023/10/02 11:28:40;;;;;;;7.90;5.45;;;;;;;47.47;15.56;99592.06;5035185;28;42437;-86
2023/10/02 11:31:32;;;;;;;6.38;5.30;;;;;;;46.80;16.25;99582.78;5052506;28;39867;-86
2023/10/02 11:34:02;;;;;;;7.88;5.57;;;;;;;47.51;16.45;99578.19;5048767;28;41881;-86
2023/10/02 11:36:33;;;;;;;7.68;5.75;;;;;;;48.58;15.05;99571.16;5051342;28;43758;-85
2023/10/02 11:39:08;;;;;;;7.20;5.65;;;;;;;49.56;14.21;99572.41;5032638;28;41448;-85
2023/10/02 11:41:37;;;;;;;7.35;5.78;;;;;;;50.65;13.44;99583.78;5049995;28;38689;-86
2023/10/02 11:44:06;;;;;;;8.60;6.72;;;;;;;51.44;13.29;99584.72;5050157;28;40964;-86
2023/10/02 11:46:34;;;;;;;6.93;5.82;;;;;;;51.71;12.78;99569.94;5033233;28;41885;-86
2023/10/02 11:49:04;;;;;;;6.95;5.72;;;;;;;51.88;12.99;99572.53;5033379;28;41311;-87
2023/10/02 11:51:33;;;;;;;7.47;5.88;;;;;;;52.02;12.50;99553.25;5032914;28;40225;-86
2023/10/02 11:54:05;;;;;;;8.25;6.03;;;;;;;51.96;12.40;99568.78;5033016;28;40587;-87
2023/10/02 11:56:34;;;;;;;8.52;5.85;;;;;;;51.77;12.58;99562.88;5042433;28;44108;-86
2023/10/02 11:59:02;;;;;;;7.60;5.63;;;;;;;51.44;13.39;99539.53;5071267;28;41378;-85
2023/10/02 12:01:30;;;;;;;6.82;5.45;;;;;;;51.26;12.74;99551.03;5038403;28;38819;-86
2023/10/02 12:03:57;;;;;;;8.38;6.30;;;;;;;51.07;13.27;99547.06;5050458;28;42069;-86
2023/10/02 12:06:28;;;;;;;6.65;5.53;;;;;;;50.97;12.79;99549.13;5049982;28;41884;-86
2023/10/02 12:08:57;;;;;;;9.18;5.63;;;;;;;50.86;13.29;99535.78;5051214;28;42618;-86
2023/10/02 12:11:25;;;;;;;8.95;5.50;;;;;;;50.67;13.39;99539.97;5049730;28;39895;-86
2023/10/02 12:13:53;;;;;;;7.30;5.60;;;;;;;50.39;13.21;99538.84;5034562;28;42152;-85
2023/10/02 12:16:22;;;;;;;8.18;6.05;;;;;;;49.78;13.53;99529.91;5050201;28;43532;-85
2023/10/02 12:18:51;;;;;;;8.20;5.68;;;;;;;49.15;14.01;99499.78;5034007;28;42612;-85
2023/10/02 12:21:21;;;;;;;9.40;5.65;;;;;;;48.63;13.89;99513.91;5050556;28;38973;-84
2023/10/02 12:23:50;;;;;;;8.48;6.03;;;;;;;47.83;14.28;99482.41;5050764;28;43025;-86
2023/10/02 12:26:19;;;;;;;8.95;5.72;;;;;;;47.58;14.78;99485.94;5033836;28;41907;-86
2023/10/02 12:28:47;;;;;;;9.05;5.53;;;;;;;47.69;14.89;99486.47;5033962;28;40872;-85
2023/10/02 12:31:17;;;;;;;6.80;5.50;;;;;;;47.63;15.16;99466.13;5034032;28;38989;-85
2023/10/02 12:33:46;;;;;;;8.38;5.97;;;;;;;47.45;15.29;99472.84;5034251;28;40666;-86
2023/10/02 12:36:17;;;;;;;7.80;5.38;;;;;;;46.56;15.84;99440.09;5050513;28;41717;-85
2023/10/02 12:38:45;;;;;;;9.63;6.05;;;;;;;46.34;15.98;99462.53;5033735;28;42266;-85
2023/10/02 12:41:17;;;;;;;7.85;5.80;;;;;;;46.11;15.57;99467.25;5033806;28;39615;-85
2023/10/02 12:43:45;;;;;;;8.38;5.65;;;;;;;45.88;16.13;99465.47;5047855;28;42548;-85
2023/10/02 12:46:15;;;;;;;8.48;6.07;;;;;;;46.31;15.75;99443.53;5050044;28;43386;-85
2023/10/02 12:48:46;;;;;;;8.05;5.45;;;;;;;46.95;15.22;99456.22;5050562;28;41256;-85
2023/10/02 12:51:14;;;;;;;7.82;5.82;;;;;;;47.05;15.75;99447.56;5047406;28;40461;-86
2023/10/02 12:53:42;;;;;;;7.93;5.90;;;;;;;46.75;15.54;99434.31;5033174;28;41397;-86
2023/10/02 12:56:18;;;;;;;8.82;5.05;;;;;;;46.63;15.58;99442.44;5049111;28;41846;-86
2023/10/02 12:58:48;;;;;;;9.05;6.28;;;;;;;46.81;16.12;99438.66;5032537;28;42248;-85
2023/10/02 13:01:17;;;;;;;9.38;5.97;;;;;;;47.00;15.85;99430.00;5049221;28;40885;-85
2023/10/02 13:03:45;;;;;;;8.38;5.70;;;;;;;47.01;15.66;99432.50;5035777;28;40823;-86
2023/10/02 13:06:13;;;;;;;10.27;6.25;;;;;;;46.96;15.66;99426.19;5035904;28;42183;-86
2023/10/02 13:08:42;;;;;;;8.95;6.07;;;;;;;46.60;15.60;99423.50;5035592;28;42316;-85
2023/10/02 13:11:13;;;;;;;8.35;5.63;;;;;;;46.13;15.84;99428.50;5052483;28;40053;-86
2023/10/02 13:13:45;;;;;;;10.15;6.47;;;;;;;45.59;16.65;99426.66;5053885;28;42910;-85
2023/10/02 13:16:13;;;;;;;9.43;6.07;;;;;;;45.44;16.82;99414.63;5036229;28;44808;-85
2023/10/02 13:18:41;;;;;;;9.10;6.07;;;;;;;45.49;16.61;99412.84;5053577;28;42406;-86
2023/10/02 13:21:09;;;;;;;8.38;6.03;;;;;;;45.33;16.60;99406.75;5053474;28;39496;-86
2023/10/02 13:23:37;;;;;;;10.48;6.45;;;;;;;44.80;16.81;99386.78;5036621;28;41525;-85
2023/10/02 13:26:05;;;;;;;8.55;5.78;;;;;;;44.41;17.01;99393.59;5054127;28;43091;-85
2023/10/02 13:28:34;;;;;;;8.27;5.60;;;;;;;44.12;16.90;99385.41;5036244;28;42708;-82
2023/10/02 13:31:12;;;;;;;11.23;7.03;;;;;;;44.14;17.20;99394.31;5036718;28;38675;-85
2023/10/02 13:33:41;;;;;;;9.65;6.82;;;;;;;44.14;17.73;99377.56;5036489;28;43335;-85
2023/10/02 13:36:09;;;;;;;8.98;6.55;;;;;;;44.14;18.20;99383.13;5052884;28;41878;-85
2023/10/02 13:38:37;;;;;;;9.15;6.13;;;;;;;43.87;17.85;99382.97;5036347;28;40915;-85
2023/10/02 13:41:09;;;;;;;11.73;6.72;;;;;;;43.49;17.76;99341.06;5053654;28;41048;-86
2023/10/02 13:43:41;;;;;;;11.55;6.80;;;;;;;43.91;18.47;99378.41;5034783;28;42591;-85
2023/10/02 13:46:11;;;;;;;9.52;6.93;;;;;;;43.88;17.11;99370.69;5035663;28;41843;-86
2023/10/02 13:48:39;;;;;;;11.43;7.50;;;;;;;43.92;16.94;99380.91;5035330;28;42076;-84
2023/10/02 13:51:07;;;;;;;9.07;6.30;;;;;;;43.57;17.19;99373.88;5051610;28;39993;-85
2023/10/02 13:53:36;;;;;;;9.15;6.63;;;;;;;43.53;18.03;99364.41;5051755;28;42032;-86
2023/10/02 13:56:08;;;;;;;9.93;6.30;;;;;;;43.66;17.76;99358.13;5051623;28;42568;-85
2023/10/02 13:58:38;;;;;;;10.07;5.70;;;;;;;43.47;17.33;99362.84;5035084;28;42919;-86
2023/10/02 14:01:07;;;;;;;9.85;6.55;;;;;;;43.42;18.06;99348.94;5051493;28;39724;-86
2023/10/02 14:03:37;;;;;;;10.07;6.28;;;;;;;43.44;18.45;99346.69;5051477;28;42363;-85
2023/10/02 14:06:06;;;;;;;10.05;7.00;;;;;;;43.38;18.38;99342.34;5034798;28;41370;-85
2023/10/02 14:08:33;;;;;;;10.30;7.28;;;;;;;43.08;19.20;99320.38;5034555;28;42547;-86
2023/10/02 14:11:01;;;;;;;8.65;6.28;;;;;;;42.75;18.81;99338.84;5035033;28;39142;-86
2023/10/02 14:13:28;;;;;;;10.75;6.72;;;;;;;42.47;18.62;99338.56;5052412;28;42076;-84
2023/10/02 14:15:56;;;;;;;11.30;6.38;;;;;;;41.92;18.53;99325.88;5052477;28;41991;-85
2023/10/02 14:18:24;;;;;;;9.77;6.97;;;;;;;41.43;19.27;99329.50;5053926;28;42304;-85
2023/10/02 14:21:01;;;;;;;11.80;7.88;;;;;;;40.67;19.45;99332.53;5052168;28;40094;-85
2023/10/02 14:23:29;;;;;;;10.10;6.93;;;;;;;39.81;20.30;99310.31;5049472;28;42812;-85
2023/10/02 14:25:59;;;;;;;10.65;7.35;;;;;;;39.05;20.92;99297.06;5035756;28;41905;-85
2023/10/02 14:28:27;;;;;;;9.05;7.07;;;;;;;38.51;21.49;99299.19;5052262;28;43241;-85
2023/10/02 14:30:55;;;;;;;11.15;6.93;;;;;;;38.13;21.71;99293.94;5051854;28;39339;-85
2023/10/02 14:33:23;;;;;;;9.52;6.68;;;;;;;37.72;22.71;99290.78;5035761;28;41189;-84
2023/10/02 14:35:52;;;;;;;9.52;6.65;;;;;;;37.24;23.25;99283.34;5035285;28;42202;-84
2023/10/02 14:38:22;;;;;;;10.50;7.00;;;;;;;36.86;23.52;99281.44;5035498;28;41720;-84
2023/10/02 14:40:50;;;;;;;9.68;6.05;;;;;;;36.53;24.17;99266.63;5052570;28;41971;-84
2023/10/02 14:43:18;;;;;;;9.68;6.20;;;;;;;36.23;24.60;99261.50;5049995;28;40353;-85
2023/10/02 14:45:46;;;;;;;12.77;7.22;;;;;;;35.86;24.87;99260.31;5034161;28;42012;-82
2023/10/02 14:48:16;;;;;;;12.18;6.82;;;;;;;35.49;25.19;99246.13;5034103;28;42487;-82
2023/10/02 14:50:45;;;;;;;12.63;7.15;;;;;;;35.14;25.21;99246.25;5052030;28;39820;-84
2023/10/02 14:53:14;;;;;;;11.05;7.07;;;;;;;34.93;25.68;99256.88;5050845;28;41723;-85
2023/10/02 14:55:45;;;;;;;11.63;6.10;;;;;;;34.68;26.00;99244.47;5033684;28;42892;-85
2023/10/02 14:58:13;;;;;;;12.57;7.20;;;;;;;34.37;25.72;99237.47;5047673;28;43246;-84
2023/10/02 15:00:41;;;;;;;11.97;6.23;;;;;;;34.11;26.04;99230.50;5050592;28;40688;-84
2023/10/02 15:03:09;;;;;;;11.70;6.43;;;;;;;33.80;26.54;99232.50;5051872;28;41897;-84
2023/10/02 15:05:38;;;;;;;11.77;6.60;;;;;;;33.66;26.58;99236.50;5058107;28;41688;-83
2023/10/02 15:08:09;;;;;;;11.57;6.53;;;;;;;33.41;27.25;99230.34;5073254;28;41236;-85
2023/10/02 15:10:36;;;;;;;12.07;6.80;;;;;;;33.18;27.82;99220.94;5058813;28;39972;-84
2023/10/02 15:13:06;;;;;;;9.40;5.57;;;;;;;32.87;27.57;99221.19;5034872;28;43140;-85
2023/10/02 15:15:34;;;;;;;13.40;6.23;;;;;;;32.76;28.06;99221.97;5050926;28;42267;-84
2023/10/02 15:18:04;;;;;;;10.23;6.20;;;;;;;32.46;28.66;99208.13;5051789;28;43562;-84
2023/10/02 15:20:32;;;;;;;10.03;5.43;;;;;;;32.35;28.75;99225.34;5035313;28;38970;-84
2023/10/02 15:23:00;;;;;;;9.87;6.23;;;;;;;31.88;28.66;99178.38;5051531;28;42488;-84
2023/10/02 15:25:30;;;;;;;14.00;6.67;;;;;;;31.61;28.92;99164.03;5034616;28;42497;-84
2023/10/02 15:28:00;;;;;;;10.53;6.57;;;;;;;31.74;29.03;99213.25;5051765;28;42360;-84
2023/10/02 15:30:30;;;;;;;10.90;6.40;;;;;;;31.61;29.26;99207.00;5052748;28;40069;-84
2023/10/02 15:32:58;;;;;;;9.57;5.77;;;;;;;31.51;29.14;99212.16;5049559;28;41829;-84
2023/10/02 15:35:26;;;;;;;9.80;5.87;;;;;;;31.31;29.93;99201.31;5033396;28;42986;-84
2023/10/02 15:37:55;;;;;;;11.27;6.37;;;;;;;31.21;29.88;99212.78;5033688;28;41173;-84
2023/10/02 15:40:23;;;;;;;11.23;6.63;;;;;;;30.99;30.10;99195.81;5066921;28;40339;-85
2023/10/02 15:42:53;;;;;;;13.03;6.47;;;;;;;30.91;30.63;99201.53;5033228;28;40444;-85
2023/10/02 15:45:23;;;;;;;9.60;5.67;;;;;;;30.78;30.54;99200.78;5050057;28;43120;-84
2023/10/02 15:47:55;;;;;;;9.43;5.67;;;;;;;30.56;30.82;99183.81;5051265;28;42291;-84
2023/10/02 15:50:26;;;;;;;9.43;5.50;;;;;;;30.52;30.87;99188.03;5049972;28;38969;-84
2023/10/02 15:52:54;;;;;;;9.40;5.30;;;;;;;30.40;31.15;99187.84;5048290;28;42119;-85
2023/10/02 15:55:23;;;;;;;11.27;6.53;;;;;;;30.27;31.21;99179.69;5033451;28;41990;-83
2023/10/02 15:57:52;;;;;;;13.37;5.87;;;;;;;30.09;31.42;99180.34;5049908;28;42407;-84
2023/10/02 16:00:22;;;;;;;9.13;5.37;;;;;;;30.00;31.82;99182.50;5049981;28;40887;-83
2023/10/02 16:02:53;;;;;;;8.17;5.40;;;;;;;29.85;31.88;99183.72;5051345;28;42182;-84
2023/10/02 16:05:22;;;;;;;10.70;5.43;;;;;;;29.74;31.81;99177.03;5050430;28;43276;-84
2023/10/02 16:07:51;;;;;;;10.37;5.10;;;;;;;29.61;31.76;99179.75;5051254;28;42531;-85
2023/10/02 16:10:21;;;;;;;10.03;5.70;;;;;;;29.36;32.37;99160.41;5033155;28;39571;-84
2023/10/02 16:12:50;;;;;;;8.23;5.03;;;;;;;29.29;32.55;99174.06;5050462;28;41911;-84
2023/10/02 16:15:20;;;;;;;8.87;4.70;;;;;;;29.11;32.60;99168.34;5049882;28;43099;-84
2023/10/02 16:17:49;;;;;;;9.80;5.57;;;;;;;28.99;33.18;99169.16;5048013;28;43258;-84
2023/10/02 16:20:19;;;;;;;9.70;5.90;;;;;;;28.83;33.24;99167.66;5034311;28;39305;-85
2023/10/02 16:22:48;;;;;;;10.17;5.30;;;;;;;28.67;33.35;99159.81;5034090;28;41153;-84
2023/10/02 16:25:20;;;;;;;8.33;4.97;;;;;;;28.53;34.17;99167.13;5050533;28;44056;-85
2023/10/02 16:27:49;;;;;;;8.40;4.70;;;;;;;28.25;33.97;99142.66;5050464;28;44498;-85
2023/10/02 16:30:18;;;;;;;9.70;5.33;;;;;;;28.22;34.10;99164.84;5050637;28;40108;-84
2023/10/02 16:32:48;;;;;;;9.77;5.27;;;;;;;28.08;34.12;99169.34;5034082;28;41688;-84
2023/10/02 16:35:18;;;;;;;8.80;5.03;;;;;;;27.88;34.43;99146.63;5032714;28;41731;-83
2023/10/02 16:37:48;;;;;;;8.83;5.57;;;;;;;27.70;35.06;99135.38;5050839;28;42806;-84
2023/10/02 16:40:17;;;;;;;9.70;5.83;;;;;;;27.69;35.50;99156.34;5053120;28;38754;-82
2023/10/02 16:42:45;;;;;;;10.63;5.53;;;;;;;27.54;35.81;99150.97;5053254;28;42259;-82
2023/10/02 16:45:15;;;;;;;9.23;5.77;;;;;;;27.34;36.08;99141.78;5053030;28;42732;-82
2023/10/02 16:47:43;;;;;;;9.97;5.93;;;;;;;27.27;35.89;99143.59;5054071;28;42284;-83
2023/10/02 16:50:12;;;;;;;8.23;4.97;;;;;;;27.11;35.97;99154.75;5053301;28;40020;-83
2023/10/02 16:52:44;;;;;;;11.63;4.87;;;;;;;26.97;36.71;99144.75;5036522;28;40726;-83
2023/10/02 16:55:13;;;;;;;8.80;4.80;;;;;;;26.77;36.98;99137.22;5051546;28;44383;-83
2023/10/02 16:57:44;;;;;;;10.77;5.30;;;;;;;26.73;37.00;99154.94;5036314;28;41282;-84
2023/10/02 17:00:13;;;;;;;9.43;5.47;;;;;;;26.52;37.14;99148.63;5052275;28;39965;-84
2023/10/02 17:02:41;;;;;;;9.00;5.27;;;;;;;26.45;37.48;99162.16;5036682;28;40823;-83
2023/10/02 17:05:10;;;;;;;7.77;4.53;;;;;;;26.22;37.54;99145.06;5052326;28;42213;-84
2023/10/02 17:07:40;;;;;;;8.53;5.37;;;;;;;26.19;37.40;99161.75;5035952;28;40915;-84
2023/10/02 17:10:12;;;;;;;8.37;5.03;;;;;;;25.96;37.81;99154.56;5035687;28;39027;-84
2023/10/02 17:12:41;;;;;;;10.80;5.07;;;;;;;25.78;37.69;99145.94;5051625;28;42403;-83
2023/10/02 17:15:11;;;;;;;9.23;4.57;;;;;;;25.75;37.95;99157.16;5037109;28;41677;-84
2023/10/02 17:17:41;;;;;;;9.30;5.47;;;;;;;25.58;38.14;99155.63;5053883;28;41924;-84
2023/10/02 17:20:12;;;;;;;8.70;5.40;;;;;;;25.35;38.34;99134.78;5055005;28;39995;-84
2023/10/02 17:22:40;;;;;;;10.87;5.43;;;;;;;25.35;38.57;99155.63;5052007;28;42562;-84
2023/10/02 17:25:11;;;;;;;9.00;5.20;;;;;;;25.17;38.84;99142.41;5036840;28;42196;-84
2023/10/02 17:27:39;;;;;;;9.37;5.40;;;;;;;25.08;39.12;99143.50;5050959;28;42308;-84
2023/10/02 17:30:11;;;;;;;9.27;5.30;;;;;;;24.90;39.55;99135.63;5053817;28;38739;-83
2023/10/02 17:32:39;;;;;;;10.27;5.40;;;;;;;24.73;39.46;99127.81;5037225;28;42188;-84
2023/10/02 17:35:09;;;;;;;9.93;5.17;;;;;;;24.58;39.65;99134.00;5051954;28;42022;-82
2023/10/02 17:37:37;;;;;;;8.83;5.57;;;;;;;24.54;40.11;99137.22;5052499;28;42164;-84
2023/10/02 17:40:07;;;;;;;9.00;4.60;;;;;;;24.44;40.33;99139.31;5035644;28;38932;-84
2023/10/02 17:42:35;;;;;;;8.67;4.90;;;;;;;24.29;40.30;99126.53;5052849;28;42090;-84
2023/10/02 17:45:04;;;;;;;9.93;5.03;;;;;;;24.16;40.52;99126.22;5052424;28;41947;-85
2023/10/02 17:47:35;;;;;;;7.80;4.90;;;;;;;24.14;40.93;99135.53;5052121;28;41929;-84
2023/10/02 17:50:04;;;;;;;10.40;5.30;;;;;;;24.02;40.91;99143.19;5049901;28;39742;-84
2023/10/02 17:52:32;;;;;;;9.70;5.50;;;;;;;23.89;41.09;99132.91;5052605;28;41710;-84
2023/10/02 17:55:00;;;;;;;9.57;5.23;;;;;;;23.79;41.90;99132.25;5051911;28;41563;-83
2023/10/02 17:57:27;;;;;;;10.43;5.27;;;;;;;23.59;41.95;99106.63;5085985;28;41371;-85
2023/10/02 17:59:58;;;;;;;8.87;5.43;;;;;;;23.58;42.13;99121.16;5052081;28;40438;-84
2023/10/02 18:02:26;;;;;;;9.30;5.40;;;;;;;23.44;42.54;99113.72;5050390;28;41869;-85
2023/10/02 18:04:53;;;;;;;12.47;6.43;;;;;;;23.41;42.58;99119.47;5053133;28;43135;-84
2023/10/02 18:07:21;;;;;;;11.67;5.50;;;;;;;23.29;42.59;99111.72;5052631;28;42193;-84
2023/10/02 18:09:50;;;;;;;10.97;5.57;;;;;;;23.22;42.38;99113.41;5051810;28;40102;-83
2023/10/02 18:12:18;;;;;;;11.13;5.00;;;;;;;23.13;42.70;99111.72;5052689;28;40918;-83
2023/10/02 18:14:45;;;;;;;8.63;5.30;;;;;;;23.03;42.77;99118.31;5036476;28;43132;-84
2023/10/02 18:17:15;;;;;;;8.40;4.83;;;;;;;22.87;43.32;99101.06;5036675;28;42201;-83
2023/10/02 18:19:42;;;;;;;10.10;5.60;;;;;;;22.84;43.35;99106.81;5061078;28;39620;-83